Terminal Aerodrome Forecast
Issued by NWS

Home | Current Version | Previous Version | Text Only | Print | Product List | Glossary On
Versions: 1 2 3 4 5 6 7 8 9 10 11 12 13 14 15 16 17 18 19
000
FTAK31 PAJN 232300
TAFAYA
TAF
PAYA 232338Z 2400/2424 09010KT P6SM SCT010 SCT030 OVC040
      TEMPO 2400/2404 4SM SHRA SCT010 BKN025 OVC040
     FM240400 VRB06KT 6SM -SHRA SCT025 BKN040 OVC060
      TEMPO 2404/2408 10010G18KT 3SM SHRA BKN010 BKN025 OVC040
     FM241800 10012KT P6SM -SHRA SCT010 SCT025 OVC040
      AMD LTD TO CLD VIS AND WIND 2401/2410=

USA.gov is the U.S. government's official web portal to all federal, state and local government web resources and services.